Weather at Belleville Airport

Public forecast

Using degrees Celsius for public forecast. Weather courtesy of forecast.io.

Closest aviation weather report (METAR) to Belleville Airport

Closest report is CFB Trenton, 10.4 nm (19.3 km) WSW. Retrieved 2020/12/04 13:36 UTC (0 seconds ago):

CYTR 041336Z 24008KT 7SM -SHRA BKN010 OVC030 03/02 A2986 RMK SF6SC2 VIS LWR W QUAD 6SM SLP115

Closest aviation forecast (TAF) to Belleville Airport

Closest forecast is CFB Trenton, 10.4 nm (19.3 km) WSW. Retrieved 2020/12/04 12:33 UTC (57 minutes ago):

TAF CYTR 041130Z 0412/0512 23010KT P6SM SCT015 OVC025 TEMPO 0412/0419 4SM -SHRA BR SCT008 OVC015 FM041900 25010KT P6SM SCT008 OVC012 FM050000 VRB03KT P6SM SCT012 BKN030 BECMG 0509/0511 33008KT RMK FCST BASED ON AUTO OBS 050300-051100Z NXT FCST BY 041800Z